Погода Тобрукна 2 недели

Тобрук, Ливия

22 июля-04 августа
  • 22июля
    Сегодня
    +25°
    +32°
    Ясно и безоблачно
    ВремяПогодаТемператураВлажностьДавлениеВетер, м/сВероятность осадков
    02:00Ясно и безоблачно+27°C93 %756 мм4.0 м/с0 %
    05:00Ясно и безоблачно+26°C92 %756 мм4.4 м/с0 %
    08:00Ясно и безоблачно+27°C85 %757 мм4.7 м/с0 %
    11:00Ясно и безоблачно+30°C69 %757 мм6.4 м/с0 %
    14:00Ясно и безоблачно+32°C69 %757 мм6.0 м/с0 %
    17:00Ясно и безоблачно+30°C73 %756 мм5.9 м/с0 %
    20:00Ясно и безоблачно+29°C81 %757 мм5.0 м/с0 %
    23:00Ясно и безоблачно+27°C87 %757 мм4.3 м/с0 %
  • 23июля
    Вторник
    +25°
    +33°
    Ясно и безоблачно
    ВремяПогодаТемператураВлажностьДавлениеВетер, м/сВероятность осадков
    02:00Ясно и безоблачно+26°C93 %756 мм4.3 м/с0 %
    05:00Ясно и безоблачно+25°C93 %756 мм4.5 м/с0 %
    08:00Ясно и безоблачно+27°C80 %757 мм4.0 м/с0 %
    11:00Ясно и безоблачно+30°C53 %757 мм6.7 м/с0 %
    14:00Ясно и безоблачно+31°C61 %756 мм6.2 м/с0 %
    17:00Ясно и безоблачно+30°C72 %755 мм5.7 м/с0 %
    20:00Ясно и безоблачно+29°C82 %756 мм5.2 м/с0 %
    23:00Ясно и безоблачно+28°C87 %756 мм5.2 м/с0 %
  • 24июля
    Среда
    +26°
    +33°
    Ясно и безоблачно
    ВремяПогодаТемператураВлажностьДавлениеВетер, м/сВероятность осадков
    02:00Ясно и безоблачно+27°C84 %755 мм4.8 м/с0 %
    05:00Практически безоблачно+26°C83 %754 мм4.7 м/с0 %
    08:00Ясно и безоблачно+27°C77 %755 мм4.1 м/с1 %
    11:00Ясно и безоблачно+30°C59 %754 мм6.7 м/с0 %
    14:00Ясно и безоблачно+31°C68 %753 мм6.8 м/с0 %
    17:00Ясно и безоблачно+29°C75 %753 мм7.5 м/с0 %
    20:00Ясно и безоблачно+28°C83 %753 мм6.4 м/с0 %
    23:00Ясно и безоблачно+27°C78 %753 мм5.5 м/с0 %
  • 25июля
    Четверг
    +25°
    +32°
    Ясно и безоблачно
    ВремяПогодаТемператураВлажностьДавлениеВетер, м/сВероятность осадков
    02:00Ясно и безоблачно+27°C85 %753 мм5.3 м/с0 %
    05:00Практически безоблачно+26°C85 %752 мм5.3 м/с1 %
    08:00Практически безоблачно+28°C80 %753 мм6.0 м/с3 %
    11:00Ясно и безоблачно+29°C72 %753 мм7.2 м/с5 %
    14:00Ясно и безоблачно+30°C72 %753 мм6.9 м/с2 %
    17:00Ясно и безоблачно+30°C76 %753 мм7.7 м/с0 %
    20:00Ясно и безоблачно+29°C83 %753 мм6.8 м/с0 %
    23:00Ясно и безоблачно+28°C85 %753 мм5.8 м/с0 %
  • 26июля
    Пятница
    +25°
    +32°
    Ясно и безоблачно
    ВремяПогодаТемператураВлажностьДавлениеВетер, м/сВероятность осадков
    02:00Ясно и безоблачно+27°C86 %753 мм5.4 м/с0 %
    05:00Практически безоблачно+26°C84 %754 мм5.2 м/с0 %
    08:00Практически безоблачно+27°C77 %754 мм5.4 м/с1 %
    11:00Ясно и безоблачно+29°C70 %755 мм6.9 м/с1 %
    14:00Ясно и безоблачно+30°C70 %755 мм6.5 м/с1 %
    17:00Ясно и безоблачно+29°C74 %755 мм6.3 м/с0 %
    20:00Ясно и безоблачно+29°C78 %755 мм5.8 м/с0 %
    23:00Ясно и безоблачно+28°C81 %756 мм5.3 м/с0 %
Мы используем cookies
Соглашаюсь